Time;durP1;ratioP1;P1;durP2;ratioP2;P2;SDS_P1;SDS_P2;PMS_P1;PMS_P2;Temp;Humidity;BMP_temperature;BMP_pressure;BME280_temperature;BME280_humidity;BME280_pressure;Samples;Min_cycle;Max_cycle;Signal;HPM_P1;HPM_P2
2022/08/14 00:01:51;;;;;;;23.20;21.10;;;;;;;19.73;76.66;100304.78;108766;1272;22005;-82
2022/08/14 00:04:41;;;;;;;24.50;21.90;;;;;;;19.71;76.71;100303.73;108686;1273;22625;-82
2022/08/14 00:07:14;;;;;;;22.00;20.00;;;;;;;19.73;76.74;100299.25;108705;1269;21992;-82
2022/08/14 00:09:52;;;;;;;21.50;19.90;;;;;;;19.74;76.80;100295.36;109179;1267;21969;-80
2022/08/14 00:12:56;;;;;;;21.50;19.70;;;;;;;19.72;76.87;100296.55;109235;1265;21985;-79
2022/08/14 00:15:37;;;;;;;21.70;19.60;;;;;;;19.71;76.81;100293.14;109303;1264;22007;-83
2022/08/14 00:18:22;;;;;;;22.60;20.70;;;;;;;19.68;76.76;100291.16;109463;1264;21978;-83
2022/08/14 00:21:20;;;;;;;21.30;19.40;;;;;;;19.66;76.69;100290.88;109541;1264;21993;-84
2022/08/14 00:24:03;;;;;;;22.50;20.50;;;;;;;19.64;76.83;100287.22;109242;1267;21986;-82
2022/08/14 00:26:39;;;;;;;23.30;21.60;;;;;;;19.64;76.88;100288.79;109245;1267;22588;-82
2022/08/14 00:29:30;;;;;;;24.00;21.80;;;;;;;19.62;76.89;100286.08;109186;1267;22550;-82
2022/08/14 00:32:12;;;;;;;23.50;21.30;;;;;;;19.59;76.89;100288.58;109051;1267;23609;-81
2022/08/14 00:35:18;;;;;;;23.30;21.10;;;;;;;19.57;76.98;100285.20;109271;1267;21973;-81
2022/08/14 00:37:50;;;;;;;23.50;21.20;;;;;;;19.56;77.08;100282.07;109221;1265;23600;-81
2022/08/14 00:40:25;;;;;;;23.20;21.10;;;;;;;19.57;77.08;100281.29;109244;1267;23015;-82
2022/08/14 00:43:08;;;;;;;23.50;21.70;;;;;;;19.55;77.05;100274.88;109774;1258;22034;-82
2022/08/14 00:45:41;;;;;;;24.20;22.00;;;;;;;19.53;76.96;100271.03;109769;1259;21983;-82
2022/08/14 00:48:20;;;;;;;23.10;21.10;;;;;;;19.52;76.89;100267.33;110138;1259;24299;-81
2022/08/14 00:51:09;;;;;;;23.20;21.30;;;;;;;19.49;77.01;100258.64;109968;1258;23772;-81
2022/08/14 00:53:49;;;;;;;24.20;22.10;;;;;;;19.48;76.91;100260.77;110046;1260;22310;-79
2022/08/14 00:56:25;;;;;;;25.10;22.70;;;;;;;19.47;77.09;100261.67;109941;1260;22042;-80
2022/08/14 00:59:03;;;;;;;23.60;21.50;;;;;;;19.46;77.26;100265.10;109956;1259;21969;-82
2022/08/14 01:01:43;;;;;;;21.90;19.90;;;;;;;19.46;77.24;100263.10;109499;1264;24391;-81
2022/08/14 01:04:14;;;;;;;22.70;20.60;;;;;;;19.45;77.24;100264.59;109577;1264;22924;-80
2022/08/14 01:07:19;;;;;;;23.90;21.80;;;;;;;19.44;77.33;100262.77;109613;1264;23684;-81
2022/08/14 01:09:54;;;;;;;24.30;21.90;;;;;;;19.45;77.29;100264.59;109499;1262;21976;-81
2022/08/14 01:12:34;;;;;;;23.10;21.30;;;;;;;19.44;77.27;100262.46;109516;1261;23684;-81
2022/08/14 01:15:36;;;;;;;24.50;22.30;;;;;;;19.43;77.34;100261.80;109573;1263;21973;-80
2022/08/14 01:21:37;;;;;;;25.30;22.80;;;;;;;19.41;77.35;100256.17;110124;1259;23086;-81
2022/08/14 01:24:29;;;;;;;26.80;24.30;;;;;;;19.38;77.20;100259.95;110264;1259;23803;-80
2022/08/14 01:27:17;;;;;;;22.30;20.60;;;;;;;19.35;77.16;100263.95;110067;1259;21972;-80
2022/08/14 01:30:02;;;;;;;22.70;20.60;;;;;;;19.32;77.00;100258.72;109815;1258;22035;-81
2022/08/14 01:32:44;;;;;;;23.00;20.90;;;;;;;19.30;77.19;100256.70;110133;1258;21977;-81
2022/08/14 01:35:27;;;;;;;23.50;21.50;;;;;;;19.28;77.27;100255.03;109831;1261;23527;-80
2022/08/14 01:38:34;;;;;;;25.20;23.00;;;;;;;19.25;77.35;100253.30;110356;1258;23617;-80
2022/08/14 01:41:19;;;;;;;25.70;23.30;;;;;;;19.24;77.37;100249.35;109671;1266;21983;-81
2022/08/14 01:44:14;;;;;;;27.20;24.70;;;;;;;19.23;77.55;100251.47;109321;1264;22170;-81
2022/08/14 01:47:13;;;;;;;27.20;24.90;;;;;;;19.21;77.59;100253.67;109427;1264;22042;-82
2022/08/14 01:50:05;;;;;;;;;;;;;;;19.20;77.64;100254.52;109385;1264;23762;-80
2022/08/14 01:52:46;;;;;;;27.50;25.20;;;;;;;19.12;77.67;100258.24;109516;1264;23861;-81
2022/08/14 01:55:41;;;;;;;30.00;27.00;;;;;;;19.11;77.77;100252.20;109324;1264;23106;-80
2022/08/14 01:58:22;;;;;;;27.40;25.10;;;;;;;19.11;77.70;100252.66;109267;1264;22096;-81
2022/08/14 02:01:08;;;;;;;26.50;24.50;;;;;;;19.11;77.69;100249.98;110039;1261;21989;-80
2022/08/14 02:03:42;;;;;;;25.80;23.70;;;;;;;19.11;77.72;100248.91;109435;1264;23685;-82
2022/08/14 02:07:05;;;;;;;28.70;25.80;;;;;;;19.09;77.81;100251.95;108741;1275;22787;-81
2022/08/14 02:10:01;;;;;;;27.60;25.50;;;;;;;19.08;77.84;100246.72;108691;1273;23081;-82
2022/08/14 02:13:04;;;;;;;26.80;24.70;;;;;;;19.07;77.91;100241.84;108702;1273;22796;-81
2022/08/14 02:15:47;;;;;;;26.10;23.80;;;;;;;19.07;78.06;100238.98;108701;1272;22028;-82
2022/08/14 02:18:25;;;;;;;28.60;26.50;;;;;;;19.09;78.05;100237.77;108733;1273;22044;-83
2022/08/14 02:21:07;;;;;;;30.50;28.00;;;;;;;19.11;78.16;100232.88;108717;1273;22010;-83
2022/08/14 02:23:45;;;;;;;29.60;27.10;;;;;;;19.12;78.04;100231.34;108795;1269;21977;-81
2022/08/14 02:26:33;;;;;;;26.40;24.40;;;;;;;19.11;78.01;100227.65;109201;1264;21993;-82
2022/08/14 02:29:34;;;;;;;26.30;23.90;;;;;;;19.10;77.93;100225.95;110083;1258;23817;-82
2022/08/14 02:32:28;;;;;;;25.90;23.70;;;;;;;19.08;77.98;100223.70;110234;1259;24358;-81
2022/08/14 02:35:17;;;;;;;22.40;20.40;;;;;;;19.07;77.91;100223.30;110309;1260;22034;-82
2022/08/14 02:38:01;;;;;;;25.30;23.30;;;;;;;19.06;77.87;100219.48;110336;1258;22036;-82
2022/08/14 02:40:38;;;;;;;28.80;26.50;;;;;;;19.08;78.00;100214.81;110107;1260;21991;-81
2022/08/14 02:43:22;;;;;;;26.90;24.60;;;;;;;19.07;77.95;100217.83;109470;1266;23593;-81
2022/08/14 02:46:10;;;;;;;24.30;22.00;;;;;;;19.07;78.00;100217.25;109476;1265;21991;-82
2022/08/14 02:49:00;;;;;;;25.50;23.40;;;;;;;19.07;78.19;100216.87;109421;1266;21982;-83
2022/08/14 02:51:37;;;;;;;25.10;23.00;;;;;;;19.08;78.16;100215.79;109261;1267;23053;-82
2022/08/14 02:54:38;;;;;;;26.90;24.70;;;;;;;19.07;78.08;100213.34;109427;1267;22517;-81
2022/08/14 02:57:25;;;;;;;27.10;24.90;;;;;;;19.07;78.14;100211.73;108934;1272;24181;-80
2022/08/14 03:00:30;;;;;;;26.80;24.40;;;;;;;19.06;78.18;100206.62;108890;1272;21964;-80
2022/08/14 03:03:01;;;;;;;27.30;25.00;;;;;;;19.07;78.35;100207.23;109476;1266;22006;-77
2022/08/14 03:05:50;;;;;;;28.60;25.80;;;;;;;19.09;78.39;100208.52;108743;1270;23257;-80
2022/08/14 03:08:30;;;;;;;28.30;25.80;;;;;;;19.11;78.45;100208.04;108747;1272;22101;-80
2022/08/14 03:11:28;;;;;;;28.70;26.10;;;;;;;19.12;78.50;100203.63;108571;1272;22003;-80
2022/08/14 03:14:37;;;;;;;29.40;27.00;;;;;;;19.15;78.62;100203.17;108384;1274;22055;-80
2022/08/14 03:17:20;;;;;;;35.00;31.90;;;;;;;19.16;78.58;100201.64;108688;1273;22008;-79
2022/08/14 03:20:34;;;;;;;29.00;26.50;;;;;;;19.17;78.48;100199.16;108674;1273;23637;-79
2022/08/14 03:23:32;;;;;;;30.30;27.60;;;;;;;19.20;78.70;100195.52;108733;1270;22101;-80
2022/08/14 03:26:31;;;;;;;27.30;25.30;;;;;;;19.20;78.58;100195.48;109160;1264;21984;-80
2022/08/14 03:29:20;;;;;;;27.90;25.60;;;;;;;19.22;78.71;100192.73;109355;1264;21978;-80
2022/08/14 03:31:58;;;;;;;29.10;26.40;;;;;;;19.24;78.74;100189.21;109514;1259;21973;-81
2022/08/14 03:34:32;;;;;;;30.10;27.50;;;;;;;19.26;78.82;100187.19;109952;1260;22137;-81
2022/08/14 03:37:37;;;;;;;33.70;30.70;;;;;;;19.29;78.90;100184.94;109559;1260;23073;-80
2022/08/14 03:40:46;;;;;;;30.10;27.80;;;;;;;19.29;78.82;100182.00;110150;1260;23601;-80
2022/08/14 03:43:29;;;;;;;30.10;27.80;;;;;;;19.32;78.90;100178.54;109717;1260;22649;-81
2022/08/14 03:46:12;;;;;;;30.00;27.50;;;;;;;19.35;78.86;100180.76;110020;1260;22391;-80
2022/08/14 03:49:31;;;;;;;34.70;31.50;;;;;;;19.37;78.97;100184.59;109990;1260;22014;-81
2022/08/14 03:52:24;;;;;;;32.50;29.90;;;;;;;19.39;78.94;100183.63;109275;1263;21977;-79
2022/08/14 03:55:21;;;;;;;34.40;31.60;;;;;;;19.40;78.91;100186.90;109307;1264;22026;-82
2022/08/14 03:59:14;;;;;;;;;;;;;;;;;;;;;
2022/08/14 04:01:51;;;;;;;32.20;29.50;;;;;;;19.40;78.77;100192.34;108786;1276;22004;-80
2022/08/14 04:04:43;;;;;;;30.50;27.90;;;;;;;19.40;78.68;100197.38;108681;1273;22353;-81
2022/08/14 04:07:21;;;;;;;29.00;26.50;;;;;;;19.39;78.51;100200.23;108611;1274;23070;-82
2022/08/14 04:10:19;;;;;;;27.10;24.70;;;;;;;19.37;78.57;100206.73;108649;1273;23014;-81
2022/08/14 04:13:04;;;;;;;29.30;26.80;;;;;;;19.35;78.79;100203.63;108993;1270;22150;-81
2022/08/14 04:15:51;;;;;;;28.00;25.40;;;;;;;19.34;78.85;100202.04;108802;1273;22001;-81
2022/08/14 04:18:52;;;;;;;28.20;25.70;;;;;;;19.32;78.78;100197.81;108884;1270;23777;-80
2022/08/14 04:21:30;;;;;;;28.30;25.70;;;;;;;19.32;78.96;100192.52;109208;1267;22031;-81
2022/08/14 04:24:38;;;;;;;27.40;25.00;;;;;;;19.32;79.03;100194.50;109152;1267;21976;-80
2022/08/14 04:27:19;;;;;;;26.60;24.40;;;;;;;19.32;79.01;100196.59;109229;1267;22088;-80
2022/08/14 04:29:54;;;;;;;27.10;24.90;;;;;;;19.34;79.01;100202.86;109285;1264;22919;-79
2022/08/14 04:32:27;;;;;;;27.90;25.40;;;;;;;19.34;78.99;100200.92;108921;1270;23056;-80
2022/08/14 04:35:27;;;;;;;28.70;26.30;;;;;;;19.34;78.96;100197.02;108951;1270;23689;-79
2022/08/14 04:44:55;;;;;;;27.00;24.80;;;;;;;19.36;79.10;100195.98;108629;1269;21986;-81
2022/08/14 04:50:34;;;;;;;26.90;24.30;;;;;;;19.38;79.10;100185.33;108749;1270;22158;-83
2022/08/14 04:53:22;;;;;;;25.60;23.10;;;;;;;19.40;79.11;100180.67;108835;1271;22057;-80
2022/08/14 04:56:17;;;;;;;26.00;23.80;;;;;;;19.42;79.14;100180.40;108979;1267;22042;-81
2022/08/14 04:59:21;;;;;;;23.90;22.00;;;;;;;19.43;79.04;100181.33;109195;1267;22456;-80
2022/08/14 05:02:07;;;;;;;28.70;26.20;;;;;;;19.45;79.11;100182.08;108726;1273;22839;-80
2022/08/14 05:04:58;;;;;;;;;;;;;;;;;;;;;
2022/08/14 05:08:33;;;;;;;24.00;21.60;;;;;;;19.53;79.10;100187.30;108880;1272;22200;-80
2022/08/14 05:11:41;;;;;;;21.10;19.50;;;;;;;19.54;79.06;100183.09;109369;1267;22115;-80
2022/08/14 05:14:34;;;;;;;24.90;22.50;;;;;;;19.58;79.14;100180.56;109482;1266;22661;-80
2022/08/14 05:17:25;;;;;;;22.90;21.00;;;;;;;19.61;78.98;100174.34;109373;1266;23071;-81
2022/08/14 05:20:36;;;;;;;22.30;20.30;;;;;;;19.66;78.97;100175.50;109290;1260;22753;-81
2022/08/14 05:23:38;;;;;;;23.80;21.90;;;;;;;19.72;78.95;100169.42;110153;1260;23052;-81
2022/08/14 05:26:27;;;;;;;24.20;21.70;;;;;;;19.78;78.86;100166.60;109871;1260;22910;-80
2022/08/14 05:29:27;;;;;;;21.70;19.80;;;;;;;19.85;78.73;100161.65;109998;1260;23069;-81
2022/08/14 05:32:38;;;;;;;23.20;21.00;;;;;;;19.90;78.58;100163.18;110127;1260;24288;-81
2022/08/14 05:40:25;;;;;;;;;;;;;;;;;;;;;
2022/08/14 05:44:26;;;;;;;19.80;18.10;;;;;;;20.01;77.82;100162.89;108935;1273;22083;-81
2022/08/14 05:47:40;;;;;;;18.80;17.30;;;;;;;20.04;77.79;100163.88;107852;1285;22368;-78
2022/08/14 05:50:14;;;;;;;19.50;17.50;;;;;;;20.10;77.63;100163.02;107690;1286;21997;-80
2022/08/14 05:53:02;;;;;;;18.80;17.10;;;;;;;20.14;77.36;100160.17;107762;1286;23093;-80
2022/08/14 05:55:33;;;;;;;18.40;16.60;;;;;;;20.17;77.21;100163.79;106976;1291;23659;-80
2022/08/14 05:58:05;;;;;;;18.20;16.60;;;;;;;20.19;77.00;100159.70;107298;1291;22011;-79
2022/08/14 06:00:56;;;;;;;18.80;17.30;;;;;;;20.19;76.93;100156.52;107286;1289;23487;-79
2022/08/14 06:03:26;;;;;;;19.00;17.40;;;;;;;20.18;76.76;100158.12;107124;1289;22018;-79
2022/08/14 06:05:56;;;;;;;18.80;17.20;;;;;;;20.17;76.60;100161.58;107155;1291;22010;-79
2022/08/14 06:08:47;;;;;;;19.10;17.50;;;;;;;20.16;76.74;100155.66;107504;1288;22004;-77
2022/08/14 06:11:18;;;;;;;17.60;16.20;;;;;;;20.17;76.93;100153.10;107259;1289;22036;-78
2022/08/14 06:14:06;;;;;;;18.30;16.50;;;;;;;20.22;77.07;100152.41;107643;1289;23750;-78
2022/08/14 06:16:48;;;;;;;17.40;15.80;;;;;;;20.28;77.10;100150.59;107570;1289;22011;-77
2022/08/14 06:19:38;;;;;;;18.60;16.90;;;;;;;20.36;77.39;100151.67;107465;1279;22026;-81
2022/08/14 06:22:29;;;;;;;18.20;16.10;;;;;;;20.49;77.57;100146.85;108498;1276;23106;-78
2022/08/14 06:25:17;;;;;;;16.40;14.80;;;;;;;20.61;77.29;100141.58;109193;1264;21992;-80
2022/08/14 06:27:54;;;;;;;16.30;15.10;;;;;;;20.69;76.72;100145.06;109326;1264;23749;-80
2022/08/14 06:30:34;;;;;;;14.70;13.30;;;;;;;20.77;76.52;100141.72;109420;1257;21978;-81
2022/08/14 06:33:24;;;;;;;14.30;12.90;;;;;;;20.89;76.64;100143.65;109906;1260;21981;-82
2022/08/14 06:36:33;;;;;;;13.60;11.50;;;;;;;21.02;76.32;100146.32;109938;1260;22659;-77
2022/08/14 06:43:37;;;;;;;11.40;9.90;;;;;;;21.24;75.34;100145.27;108943;1267;23706;-78
2022/08/14 06:46:26;;;;;;;12.60;10.40;;;;;;;21.37;74.84;100142.16;108887;1267;22551;-78
2022/08/14 06:49:17;;;;;;;11.20;10.10;;;;;;;21.46;74.29;100146.42;109207;1267;21984;-78
2022/08/14 06:52:36;;;;;;;10.50;9.50;;;;;;;21.51;73.57;100144.84;109192;1267;21985;-77
2022/08/14 06:55:30;;;;;;;11.40;10.30;;;;;;;21.55;73.50;100141.85;109232;1265;22446;-78
2022/08/14 06:58:29;;;;;;;12.60;10.50;;;;;;;21.59;73.13;100140.58;109326;1267;22310;-76
2022/08/14 07:07:01;;;;;;;12.00;10.70;;;;;;;21.57;72.48;100138.28;108812;1270;22081;-76
2022/08/14 07:09:32;;;;;;;11.50;10.40;;;;;;;21.55;72.28;100143.62;108868;1270;22060;-77
2022/08/14 07:12:21;;;;;;;11.50;9.10;;;;;;;21.52;72.39;100142.28;108433;1273;23664;-76
2022/08/14 07:15:19;;;;;;;10.10;8.00;;;;;;;21.54;72.71;100146.94;108458;1276;22005;-74
2022/08/14 07:17:50;;;;;;;9.30;8.30;;;;;;;21.60;72.81;100146.66;108437;1276;23676;-77
2022/08/14 07:20:32;;;;;;;9.30;8.40;;;;;;;21.67;72.76;100139.33;108984;1268;23090;-76
2022/08/14 07:23:06;;;;;;;9.50;8.40;;;;;;;21.75;72.65;100137.26;109172;1267;22879;-76
2022/08/14 07:25:54;;;;;;;13.00;8.20;;;;;;;21.90;72.94;100134.03;109380;1263;22043;-76
2022/08/14 07:28:34;;;;;;;9.60;8.00;;;;;;;22.19;73.69;100130.66;109200;1267;21982;-78
2022/08/14 07:31:17;;;;;;;8.70;7.50;;;;;;;22.74;74.28;100129.60;109684;1260;21976;-77
2022/08/14 07:33:50;;;;;;;9.00;7.10;;;;;;;23.26;72.84;100133.17;109763;1260;23049;-77
2022/08/14 07:36:37;;;;;;;8.60;7.10;;;;;;;23.67;70.72;100134.26;109828;1262;22066;-77
2022/08/14 07:39:35;;;;;;;8.40;6.90;;;;;;;24.10;69.60;100132.45;109751;1260;23046;-78
2022/08/14 07:42:09;;;;;;;14.40;5.90;;;;;;;24.67;69.19;100130.05;109649;1263;21979;-78
2022/08/14 07:44:52;;;;;;;6.70;5.60;;;;;;;25.20;66.41;100125.23;109814;1260;23697;-78
2022/08/14 07:47:48;;;;;;;8.80;6.10;;;;;;;25.55;64.02;100124.45;109972;1257;21982;-77
2022/08/14 07:50:24;;;;;;;7.20;5.50;;;;;;;25.93;62.60;100128.85;109748;1260;21969;-77
2022/08/14 07:53:15;;;;;;;7.50;6.10;;;;;;;25.93;59.99;100127.12;109770;1260;21990;-78
2022/08/14 07:55:59;;;;;;;10.60;7.60;;;;;;;25.74;59.57;100126.34;109800;1260;22058;-77
2022/08/14 07:58:51;;;;;;;9.20;6.10;;;;;;;25.61;60.45;100125.05;110252;1260;22082;-77
2022/08/14 08:01:43;;;;;;;8.40;7.00;;;;;;;25.71;60.77;100120.60;109902;1260;22025;-78
2022/08/14 08:04:36;;;;;;;6.90;5.80;;;;;;;25.76;59.89;100117.94;109995;1260;22175;-77
2022/08/14 08:07:06;;;;;;;9.90;6.70;;;;;;;25.68;59.32;100112.53;110276;1259;21974;-78
2022/08/14 08:09:58;;;;;;;8.00;5.80;;;;;;;25.59;59.17;100107.70;109797;1259;21970;-79
2022/08/14 08:13:19;;;;;;;8.60;6.10;;;;;;;25.42;59.27;100106.59;109597;1263;22225;-77
2022/08/14 08:15:59;;;;;;;6.20;5.50;;;;;;;25.27;59.81;100107.83;109674;1263;21983;-78
2022/08/14 08:18:32;;;;;;;8.00;5.90;;;;;;;25.45;61.36;100101.77;109591;1263;21984;-76
2022/08/14 08:21:12;;;;;;;6.10;5.50;;;;;;;25.73;60.92;100099.07;109718;1263;22432;-77
2022/08/14 08:23:45;;;;;;;9.10;6.30;;;;;;;25.89;59.58;100100.50;109722;1263;21975;-79
2022/08/14 08:26:29;;;;;;;6.60;5.10;;;;;;;26.05;59.16;100099.47;108989;1270;22151;-77
2022/08/14 08:29:08;;;;;;;11.60;6.80;;;;;;;26.14;58.25;100099.98;109165;1267;21992;-78
2022/08/14 08:31:51;;;;;;;7.40;5.30;;;;;;;26.12;57.42;100096.85;108894;1267;22107;-77
2022/08/14 08:34:29;;;;;;;6.20;5.50;;;;;;;25.99;57.14;100095.55;108964;1267;23854;-77
2022/08/14 08:37:02;;;;;;;7.30;5.10;;;;;;;25.84;56.99;100098.89;108867;1267;21985;-78
2022/08/14 08:39:49;;;;;;;9.80;5.70;;;;;;;25.60;57.05;100094.64;108936;1269;21994;-78
2022/08/14 08:43:34;;;;;;;9.90;6.60;;;;;;;25.32;57.67;100094.85;108578;1273;21992;-78
2022/08/14 08:46:29;;;;;;;;;;;;;;;;;;;;;
2022/08/14 08:49:06;;;;;;;10.80;6.10;;;;;;;24.95;58.44;100098.08;108528;1273;21986;-77
2022/08/14 08:51:39;;;;;;;7.40;5.50;;;;;;;24.83;58.80;100097.84;109050;1264;24370;-78
2022/08/14 08:54:29;;;;;;;10.50;5.40;;;;;;;24.69;59.02;100100.62;109270;1264;23771;-78
2022/08/14 08:57:31;;;;;;;7.00;4.70;;;;;;;24.58;59.41;100103.95;109184;1263;23054;-79
2022/08/14 09:00:17;;;;;;;7.90;4.80;;;;;;;24.49;59.68;100101.55;109411;1257;23617;-77
2022/08/14 09:03:08;;;;;;;10.10;6.70;;;;;;;24.42;59.99;100098.56;110176;1257;22205;-77
2022/08/14 09:06:14;;;;;;;7.10;5.10;;;;;;;24.42;60.04;100096.88;110050;1257;21970;-77
2022/08/14 09:09:24;;;;;;;7.50;5.30;;;;;;;24.43;60.57;100089.38;109680;1263;21968;-77
2022/08/14 09:12:02;;;;;;;9.60;7.80;;;;;;;24.54;60.79;100087.30;109762;1262;22013;-77
2022/08/14 09:14:35;;;;;;;10.10;6.50;;;;;;;24.70;60.63;100084.05;109607;1263;23954;-75
2022/08/14 09:17:08;;;;;;;10.00;5.10;;;;;;;24.91;60.85;100085.90;109371;1263;23025;-75
2022/08/14 09:19:37;;;;;;;10.80;7.70;;;;;;;25.19;60.29;100087.48;109265;1262;21987;-75
2022/08/14 09:22:12;;;;;;;11.10;5.40;;;;;;;25.34;59.06;100085.98;109435;1262;23019;-76
2022/08/14 09:25:07;;;;;;;6.70;5.00;;;;;;;25.29;58.18;100083.02;109693;1263;22005;-74
2022/08/14 09:27:37;;;;;;;8.00;4.90;;;;;;;25.26;59.06;100077.88;109320;1263;23614;-74
2022/08/14 09:30:10;;;;;;;9.30;5.20;;;;;;;25.45;59.82;100076.29;109700;1262;23605;-75
2022/08/14 09:33:02;;;;;;;9.30;5.70;;;;;;;25.66;59.15;100070.55;109416;1262;21995;-75
2022/08/14 09:36:06;;;;;;;10.40;5.40;;;;;;;25.73;58.11;100074.44;109774;1262;21985;-74
2022/08/14 09:39:32;;;;;;;9.40;6.30;;;;;;;25.66;57.62;100072.94;109098;1270;22001;-74
2022/08/14 09:42:36;;;;;;;7.60;6.10;;;;;;;25.52;57.78;100069.13;108955;1270;23616;-74
2022/08/14 09:45:35;;;;;;;;;;;;;;;25.35;57.98;100064.40;109085;1265;21984;-76
2022/08/14 09:48:30;;;;;;;8.00;5.20;;;;;;;25.18;58.26;100059.61;109576;1263;22090;-75
2022/08/14 09:51:04;;;;;;;;;;;;;;;25.06;58.57;100062.40;109310;1266;21960;-75
2022/08/14 09:53:47;;;;;;;8.70;6.40;;;;;;;24.89;58.73;100063.27;109905;1264;22533;-75
2022/08/14 09:56:48;;;;;;;7.70;5.90;;;;;;;24.74;59.56;100060.49;109881;1257;21977;-75
2022/08/14 09:59:26;;;;;;;7.50;5.80;;;;;;;24.62;60.06;100065.17;110331;1257;21979;-76
2022/08/14 10:02:20;;;;;;;7.40;6.60;;;;;;;24.50;60.32;100075.63;109925;1257;21996;-77
2022/08/14 10:05:08;;;;;;;10.80;6.40;;;;;;;24.43;60.79;100078.04;110202;1257;22280;-75
2022/08/14 10:07:51;;;;;;;8.70;6.00;;;;;;;24.36;61.00;100079.02;110147;1258;23048;-74
2022/08/14 10:10:39;;;;;;;8.00;6.30;;;;;;;24.29;61.39;100080.14;109505;1264;23621;-75
2022/08/14 10:13:25;;;;;;;7.70;7.00;;;;;;;24.26;61.84;100080.66;109335;1263;22032;-75
2022/08/14 10:16:34;;;;;;;;;;;;;;;24.19;61.96;100078.75;109679;1261;23057;-72
2022/08/14 10:19:29;;;;;;;9.80;7.20;;;;;;;24.02;61.99;100074.41;109444;1263;23780;-75
2022/08/14 10:22:27;;;;;;;11.40;7.90;;;;;;;23.93;62.33;100069.68;109532;1264;23614;-75
2022/08/14 10:25:16;;;;;;;10.30;7.90;;;;;;;23.86;62.92;100070.36;109525;1263;21973;-74
2022/08/14 10:27:57;;;;;;;11.80;7.90;;;;;;;23.82;63.32;100066.77;109564;1261;21935;-74
2022/08/14 10:30:35;;;;;;;10.20;8.40;;;;;;;23.81;64.11;100063.85;110056;1257;21977;-74
2022/08/14 10:33:10;;;;;;;11.90;7.60;;;;;;;23.98;65.08;100062.10;109679;1261;22458;-74
2022/08/14 10:35:46;;;;;;;8.20;6.90;;;;;;;24.22;64.81;100062.29;109709;1261;22188;-76
2022/08/14 10:38:38;;;;;;;10.60;7.20;;;;;;;24.39;64.31;100061.23;109614;1263;21972;-78
2022/08/14 10:41:19;;;;;;;9.30;6.90;;;;;;;24.51;63.69;100056.14;109443;1262;21981;-76
2022/08/14 10:44:13;;;;;;;10.10;8.30;;;;;;;24.56;63.47;100054.36;108913;1270;23704;-75
2022/08/14 10:47:11;;;;;;;9.10;8.30;;;;;;;24.78;64.15;100051.69;109019;1267;22351;-77
2022/08/14 10:50:10;;;;;;;8.10;7.10;;;;;;;25.06;63.10;100049.70;109155;1267;23695;-76
2022/08/14 10:52:59;;;;;;;9.60;8.70;;;;;;;25.18;61.83;100045.93;108949;1267;21993;-76
2022/08/14 10:55:41;;;;;;;12.10;8.90;;;;;;;25.26;61.82;100049.87;108910;1269;21994;-77
2022/08/14 10:58:28;;;;;;;9.60;8.80;;;;;;;25.29;61.13;100053.27;109208;1264;22000;-75
2022/08/14 11:01:06;;;;;;;10.80;9.40;;;;;;;25.20;60.89;100050.42;108949;1270;22095;-76
2022/08/14 11:03:44;;;;;;;10.50;8.20;;;;;;;25.13;61.24;100049.12;109325;1263;22157;-77
2022/08/14 11:06:37;;;;;;;8.30;7.50;;;;;;;25.12;61.41;100047.27;109683;1263;21939;-77
2022/08/14 11:09:35;;;;;;;8.80;7.70;;;;;;;25.13;61.75;100043.92;109606;1264;21982;-75
2022/08/14 11:12:23;;;;;;;12.70;8.90;;;;;;;25.04;61.58;100041.70;108453;1261;1467064;-77
2022/08/14 11:15:27;;;;;;;9.40;8.50;;;;;;;25.00;61.60;100048.73;109190;1264;22042;-77
2022/08/14 11:18:11;;;;;;;10.50;9.60;;;;;;;25.03;62.14;100045.27;109657;1261;23682;-75
2022/08/14 11:21:21;;;;;;;10.90;9.00;;;;;;;25.07;61.59;100049.80;109284;1267;21990;-76
2022/08/14 11:24:02;;;;;;;10.00;8.40;;;;;;;25.00;61.39;100052.89;108951;1267;22782;-76
2022/08/14 11:27:10;;;;;;;9.70;8.20;;;;;;;24.90;61.80;100055.38;108918;1267;22050;-76
2022/08/14 11:29:56;;;;;;;9.70;8.80;;;;;;;24.89;61.87;100054.02;109065;1267;22475;-76
2022/08/14 11:32:49;;;;;;;10.60;9.30;;;;;;;24.94;61.81;100049.91;108913;1267;22761;-77
2022/08/14 11:35:37;;;;;;;9.20;8.30;;;;;;;25.03;61.95;100041.16;108917;1268;22427;-77
2022/08/14 11:38:18;;;;;;;9.70;8.70;;;;;;;25.15;61.83;100039.50;109005;1264;21992;-77
2022/08/14 11:40:51;;;;;;;10.40;9.40;;;;;;;25.24;61.37;100038.63;109304;1264;21986;-77
2022/08/14 11:47:20;;;;;;;11.20;9.90;;;;;;;25.12;60.93;100030.30;108199;1281;22879;-78
2022/08/14 11:50:34;;;;;;;9.50;8.70;;;;;;;25.11;61.38;100031.98;107676;1286;22010;-77
2022/08/14 11:53:30;;;;;;;10.00;9.20;;;;;;;25.14;61.38;100031.71;107185;1292;22076;-78
2022/08/14 11:56:23;;;;;;;9.40;8.50;;;;;;;25.19;61.39;100031.13;107171;1292;23775;-78
2022/08/14 11:59:08;;;;;;;11.10;10.10;;;;;;;25.27;61.52;100024.79;107069;1293;23049;-76
2022/08/14 12:01:44;;;;;;;11.40;9.80;;;;;;;25.32;61.04;100021.63;107278;1292;23639;-77
2022/08/14 12:04:24;;;;;;;10.10;9.00;;;;;;;25.33;60.69;100015.95;107193;1291;22868;-77
2022/08/14 12:07:11;;;;;;;10.00;9.00;;;;;;;25.36;60.86;100016.66;107637;1287;22002;-76
2022/08/14 12:09:54;;;;;;;10.30;9.20;;;;;;;25.35;60.57;100015.46;107306;1287;24312;-77
2022/08/14 12:13:17;;;;;;;10.40;9.50;;;;;;;25.48;60.47;100014.63;107526;1289;544114;-77
2022/08/14 12:16:44;;;;;;;9.90;8.90;;;;;;;25.47;59.99;100007.93;109596;1263;21985;-77
2022/08/14 12:19:15;;;;;;;10.30;9.20;;;;;;;25.50;60.12;100000.17;109343;1263;23059;-75
2022/08/14 12:21:50;;;;;;;10.30;9.00;;;;;;;25.60;60.25;99997.23;110314;1256;23614;-76
2022/08/14 12:24:28;;;;;;;10.40;9.40;;;;;;;25.69;59.99;99997.73;110326;1257;23723;-76
2022/08/14 12:27:08;;;;;;;9.00;8.20;;;;;;;25.78;59.85;99999.73;109072;1258;1257940;-77
2022/08/14 12:29:53;;;;;;;11.10;10.00;;;;;;;25.84;59.11;100004.73;109829;1260;21981;-77
2022/08/14 12:32:46;;;;;;;17.00;9.30;;;;;;;25.85;58.71;100004.52;109649;1261;23806;-78
2022/08/14 12:35:57;;;;;;;;;;;;;;;25.85;58.56;100000.58;110106;1259;22038;-76
2022/08/14 12:39:05;;;;;;;10.50;9.60;;;;;;;25.75;58.55;99996.54;109903;1262;23750;-76
2022/08/14 12:42:00;;;;;;;12.70;11.60;;;;;;;25.75;58.73;99991.88;109095;1265;22023;-76
2022/08/14 12:44:42;;;;;;;10.30;9.30;;;;;;;25.71;58.56;99988.52;109200;1267;21992;-77
2022/08/14 12:47:19;;;;;;;10.60;9.60;;;;;;;25.70;58.89;99986.54;109310;1263;21991;-78
2022/08/14 12:49:54;;;;;;;10.80;9.90;;;;;;;25.73;59.06;99991.88;109593;1262;21975;-80
2022/08/14 12:52:40;;;;;;;12.60;11.20;;;;;;;25.74;58.92;99995.00;109700;1260;21979;-80
2022/08/14 12:55:34;;;;;;;11.30;10.20;;;;;;;25.71;58.89;99990.47;109958;1262;21973;-79
2022/08/14 12:58:48;;;;;;;11.40;9.40;;;;;;;25.69;58.78;99985.71;110622;1257;22486;-78
2022/08/14 13:01:33;;;;;;;10.90;9.80;;;;;;;25.73;58.73;99991.02;110554;1251;22891;-75
2022/08/14 13:04:59;;;;;;;11.50;10.10;;;;;;;25.77;58.67;99982.33;110712;1253;21955;-76
2022/08/14 13:07:33;;;;;;;11.90;10.50;;;;;;;25.87;58.87;99981.77;110689;1251;22032;-76
2022/08/14 13:10:13;;;;;;;10.60;9.30;;;;;;;25.96;58.71;99979.02;110865;1251;23701;-76
2022/08/14 13:13:09;;;;;;;12.50;11.50;;;;;;;26.06;58.11;99971.17;110642;1251;22517;-76
2022/08/14 13:15:55;;;;;;;11.10;9.90;;;;;;;26.09;57.68;99966.11;110645;1251;21960;-76
2022/08/14 13:18:40;;;;;;;11.60;10.40;;;;;;;26.06;57.62;99959.97;110022;1260;21964;-77
2022/08/14 13:21:25;;;;;;;12.40;10.40;;;;;;;26.07;57.82;99953.25;109412;1262;22013;-78
2022/08/14 13:24:51;;;;;;;;;;;;;;;26.04;57.74;99944.98;109787;1260;21954;-78
2022/08/14 13:27:49;;;;;;;10.80;9.80;;;;;;;25.92;57.66;99944.94;109215;1266;22599;-78